sensor_id;sensor_type;location;lat;lon;timestamp;P1;durP1;ratioP1;P2;durP2;ratioP2
63394;SDS011;49531;-34.520;150.798;2024-03-02T00:01:43;8.30;;;2.20;;
63394;SDS011;49531;-34.520;150.798;2024-03-02T00:04:12;5.55;;;2.05;;
63394;SDS011;49531;-34.520;150.798;2024-03-02T00:06:39;5.53;;;2.10;;
63394;SDS011;49531;-34.520;150.798;2024-03-02T00:09:06;5.53;;;1.92;;
63394;SDS011;49531;-34.520;150.798;2024-03-02T00:11:38;8.80;;;2.13;;
63394;SDS011;49531;-34.520;150.798;2024-03-02T00:14:06;3.42;;;1.83;;
63394;SDS011;49531;-34.520;150.798;2024-03-02T00:16:34;6.65;;;2.10;;
63394;SDS011;49531;-34.520;150.798;2024-03-02T00:19:02;7.82;;;2.03;;
63394;SDS011;49531;-34.520;150.798;2024-03-02T00:21:31;5.45;;;2.15;;
63394;SDS011;49531;-34.520;150.798;2024-03-02T00:23:59;8.05;;;2.10;;
63394;SDS011;49531;-34.520;150.798;2024-03-02T00:26:28;7.30;;;2.40;;
63394;SDS011;49531;-34.520;150.798;2024-03-02T00:28:56;7.60;;;2.10;;
63394;SDS011;49531;-34.520;150.798;2024-03-02T00:31:23;10.32;;;2.22;;
63394;SDS011;49531;-34.520;150.798;2024-03-02T00:33:51;11.93;;;2.50;;
63394;SDS011;49531;-34.520;150.798;2024-03-02T00:36:25;8.63;;;2.20;;
63394;SDS011;49531;-34.520;150.798;2024-03-02T00:38:53;6.03;;;2.30;;
63394;SDS011;49531;-34.520;150.798;2024-03-02T00:43:53;6.13;;;2.30;;
63394;SDS011;49531;-34.520;150.798;2024-03-02T00:46:29;6.97;;;2.50;;
63394;SDS011;49531;-34.520;150.798;2024-03-02T00:49:01;8.70;;;4.13;;
63394;SDS011;49531;-34.520;150.798;2024-03-02T00:51:37;10.15;;;4.18;;
63394;SDS011;49531;-34.520;150.798;2024-03-02T00:54:07;9.05;;;3.20;;
63394;SDS011;49531;-34.520;150.798;2024-03-02T00:56:35;8.45;;;2.65;;
63394;SDS011;49531;-34.520;150.798;2024-03-02T00:59:02;6.22;;;2.45;;
63394;SDS011;49531;-34.520;150.798;2024-03-02T01:01:29;12.35;;;2.45;;
63394;SDS011;49531;-34.520;150.798;2024-03-02T01:03:57;9.35;;;2.67;;
63394;SDS011;49531;-34.520;150.798;2024-03-02T01:06:24;7.50;;;2.70;;
63394;SDS011;49531;-34.520;150.798;2024-03-02T01:08:51;11.27;;;3.00;;
63394;SDS011;49531;-34.520;150.798;2024-03-02T01:11:18;7.55;;;2.97;;
63394;SDS011;49531;-34.520;150.798;2024-03-02T01:13:49;8.13;;;2.78;;
63394;SDS011;49531;-34.520;150.798;2024-03-02T01:16:17;6.88;;;2.70;;
63394;SDS011;49531;-34.520;150.798;2024-03-02T01:18:44;7.82;;;2.65;;
63394;SDS011;49531;-34.520;150.798;2024-03-02T01:21:11;8.45;;;2.60;;
63394;SDS011;49531;-34.520;150.798;2024-03-02T01:23:38;6.57;;;2.55;;
63394;SDS011;49531;-34.520;150.798;2024-03-02T01:26:06;5.20;;;2.33;;
63394;SDS011;49531;-34.520;150.798;2024-03-02T01:28:33;6.43;;;2.80;;
63394;SDS011;49531;-34.520;150.798;2024-03-02T01:31:00;5.00;;;2.40;;
63394;SDS011;49531;-34.520;150.798;2024-03-02T01:33:30;5.60;;;2.15;;
63394;SDS011;49531;-34.520;150.798;2024-03-02T01:35:57;6.35;;;2.50;;
63394;SDS011;49531;-34.520;150.798;2024-03-02T01:38:24;5.72;;;2.20;;
63394;SDS011;49531;-34.520;150.798;2024-03-02T01:40:51;4.57;;;2.10;;
63394;SDS011;49531;-34.520;150.798;2024-03-02T01:43:18;5.78;;;2.40;;
63394;SDS011;49531;-34.520;150.798;2024-03-02T01:45:45;6.03;;;2.40;;
63394;SDS011;49531;-34.520;150.798;2024-03-02T01:48:15;5.25;;;2.20;;
63394;SDS011;49531;-34.520;150.798;2024-03-02T01:50:42;5.60;;;2.50;;
63394;SDS011;49531;-34.520;150.798;2024-03-02T01:53:09;5.25;;;2.40;;
63394;SDS011;49531;-34.520;150.798;2024-03-02T01:55:37;5.13;;;2.40;;
63394;SDS011;49531;-34.520;150.798;2024-03-02T01:58:04;6.32;;;2.60;;
63394;SDS011;49531;-34.520;150.798;2024-03-02T02:00:31;6.65;;;2.40;;
63394;SDS011;49531;-34.520;150.798;2024-03-02T02:02:58;6.00;;;2.28;;
63394;SDS011;49531;-34.520;150.798;2024-03-02T02:05:25;5.63;;;2.42;;
63394;SDS011;49531;-34.520;150.798;2024-03-02T02:07:52;4.78;;;2.25;;
63394;SDS011;49531;-34.520;150.798;2024-03-02T02:10:19;5.32;;;2.30;;
63394;SDS011;49531;-34.520;150.798;2024-03-02T02:12:47;4.93;;;2.40;;
63394;SDS011;49531;-34.520;150.798;2024-03-02T02:15:29;5.53;;;2.38;;
63394;SDS011;49531;-34.520;150.798;2024-03-02T02:17:58;6.38;;;2.30;;
63394;SDS011;49531;-34.520;150.798;2024-03-02T02:20:25;5.22;;;2.22;;
63394;SDS011;49531;-34.520;150.798;2024-03-02T02:22:53;4.55;;;2.30;;
63394;SDS011;49531;-34.520;150.798;2024-03-02T02:25:28;5.82;;;2.20;;
63394;SDS011;49531;-34.520;150.798;2024-03-02T02:27:56;4.65;;;2.10;;
63394;SDS011;49531;-34.520;150.798;2024-03-02T02:30:27;4.32;;;2.45;;
63394;SDS011;49531;-34.520;150.798;2024-03-02T02:32:56;5.57;;;2.20;;
63394;SDS011;49531;-34.520;150.798;2024-03-02T02:35:23;4.25;;;2.17;;
63394;SDS011;49531;-34.520;150.798;2024-03-02T02:37:50;4.70;;;1.98;;
63394;SDS011;49531;-34.520;150.798;2024-03-02T02:40:20;5.07;;;2.10;;
63394;SDS011;49531;-34.520;150.798;2024-03-02T02:42:47;4.53;;;2.15;;
63394;SDS011;49531;-34.520;150.798;2024-03-02T02:45:15;6.70;;;2.28;;
63394;SDS011;49531;-34.520;150.798;2024-03-02T02:47:42;7.88;;;2.08;;
63394;SDS011;49531;-34.520;150.798;2024-03-02T02:50:11;7.28;;;2.20;;
63394;SDS011;49531;-34.520;150.798;2024-03-02T02:52:39;9.63;;;2.47;;
63394;SDS011;49531;-34.520;150.798;2024-03-02T02:55:08;5.50;;;2.28;;
63394;SDS011;49531;-34.520;150.798;2024-03-02T02:57:37;5.20;;;2.00;;
63394;SDS011;49531;-34.520;150.798;2024-03-02T03:00:06;5.30;;;2.28;;
63394;SDS011;49531;-34.520;150.798;2024-03-02T03:02:40;4.75;;;2.05;;
63394;SDS011;49531;-34.520;150.798;2024-03-02T03:05:09;4.70;;;2.20;;
63394;SDS011;49531;-34.520;150.798;2024-03-02T03:07:38;3.17;;;2.10;;
63394;SDS011;49531;-34.520;150.798;2024-03-02T03:10:07;5.80;;;2.35;;
63394;SDS011;49531;-34.520;150.798;2024-03-02T03:12:34;7.47;;;2.20;;
63394;SDS011;49531;-34.520;150.798;2024-03-02T03:15:02;6.65;;;2.17;;
63394;SDS011;49531;-34.520;150.798;2024-03-02T03:17:34;4.25;;;2.10;;
63394;SDS011;49531;-34.520;150.798;2024-03-02T03:20:02;6.45;;;2.17;;
63394;SDS011;49531;-34.520;150.798;2024-03-02T03:22:31;4.57;;;1.95;;
63394;SDS011;49531;-34.520;150.798;2024-03-02T03:24:58;6.75;;;2.30;;
63394;SDS011;49531;-34.520;150.798;2024-03-02T03:27:25;6.63;;;2.30;;
63394;SDS011;49531;-34.520;150.798;2024-03-02T03:29:53;5.40;;;2.22;;
63394;SDS011;49531;-34.520;150.798;2024-03-02T03:32:20;6.75;;;2.58;;
63394;SDS011;49531;-34.520;150.798;2024-03-02T03:34:47;4.85;;;2.10;;
63394;SDS011;49531;-34.520;150.798;2024-03-02T03:37:15;5.50;;;2.10;;
63394;SDS011;49531;-34.520;150.798;2024-03-02T03:39:42;4.45;;;2.20;;
63394;SDS011;49531;-34.520;150.798;2024-03-02T03:42:09;5.82;;;1.90;;
63394;SDS011;49531;-34.520;150.798;2024-03-02T03:44:36;4.90;;;2.20;;
63394;SDS011;49531;-34.520;150.798;2024-03-02T03:47:04;8.60;;;2.40;;
63394;SDS011;49531;-34.520;150.798;2024-03-02T03:49:32;7.80;;;2.40;;
63394;SDS011;49531;-34.520;150.798;2024-03-02T03:51:59;11.15;;;2.60;;
63394;SDS011;49531;-34.520;150.798;2024-03-02T03:54:26;10.10;;;2.35;;
63394;SDS011;49531;-34.520;150.798;2024-03-02T03:56:54;11.43;;;2.50;;
63394;SDS011;49531;-34.520;150.798;2024-03-02T03:59:21;7.97;;;2.17;;
63394;SDS011;49531;-34.520;150.798;2024-03-02T04:01:49;8.30;;;2.20;;
63394;SDS011;49531;-34.520;150.798;2024-03-02T04:04:16;8.15;;;2.20;;
63394;SDS011;49531;-34.520;150.798;2024-03-02T04:06:43;6.85;;;2.15;;
63394;SDS011;49531;-34.520;150.798;2024-03-02T04:09:10;8.73;;;2.20;;
63394;SDS011;49531;-34.520;150.798;2024-03-02T04:11:37;7.65;;;2.17;;
63394;SDS011;49531;-34.520;150.798;2024-03-02T04:14:05;2.85;;;1.90;;
63394;SDS011;49531;-34.520;150.798;2024-03-02T04:16:32;4.95;;;2.10;;
63394;SDS011;49531;-34.520;150.798;2024-03-02T04:18:59;5.72;;;2.17;;
63394;SDS011;49531;-34.520;150.798;2024-03-02T04:21:26;4.63;;;1.90;;
63394;SDS011;49531;-34.520;150.798;2024-03-02T04:23:53;6.22;;;1.95;;
63394;SDS011;49531;-34.520;150.798;2024-03-02T04:26:25;3.67;;;1.83;;
63394;SDS011;49531;-34.520;150.798;2024-03-02T04:28:52;4.28;;;1.88;;
63394;SDS011;49531;-34.520;150.798;2024-03-02T04:31:20;6.07;;;1.92;;
63394;SDS011;49531;-34.520;150.798;2024-03-02T04:33:47;5.28;;;2.00;;
63394;SDS011;49531;-34.520;150.798;2024-03-02T04:36:14;2.58;;;1.50;;
63394;SDS011;49531;-34.520;150.798;2024-03-02T04:38:41;4.38;;;1.88;;
63394;SDS011;49531;-34.520;150.798;2024-03-02T04:41:08;3.65;;;1.83;;
63394;SDS011;49531;-34.520;150.798;2024-03-02T04:43:35;3.33;;;1.58;;
63394;SDS011;49531;-34.520;150.798;2024-03-02T04:46:03;3.20;;;1.77;;
63394;SDS011;49531;-34.520;150.798;2024-03-02T04:48:32;4.95;;;1.75;;
63394;SDS011;49531;-34.520;150.798;2024-03-02T04:51:00;4.00;;;1.90;;
63394;SDS011;49531;-34.520;150.798;2024-03-02T04:53:27;6.10;;;1.90;;
63394;SDS011;49531;-34.520;150.798;2024-03-02T04:55:54;6.90;;;1.80;;
63394;SDS011;49531;-34.520;150.798;2024-03-02T04:58:24;9.68;;;1.95;;
63394;SDS011;49531;-34.520;150.798;2024-03-02T05:00:51;18.10;;;2.03;;
63394;SDS011;49531;-34.520;150.798;2024-03-02T05:03:18;13.63;;;2.22;;
63394;SDS011;49531;-34.520;150.798;2024-03-02T05:05:45;13.05;;;2.00;;
63394;SDS011;49531;-34.520;150.798;2024-03-02T05:08:13;9.30;;;1.88;;
63394;SDS011;49531;-34.520;150.798;2024-03-02T05:10:42;8.35;;;1.98;;
63394;SDS011;49531;-34.520;150.798;2024-03-02T05:13:09;8.75;;;1.75;;
63394;SDS011;49531;-34.520;150.798;2024-03-02T05:15:36;7.43;;;1.92;;
63394;SDS011;49531;-34.520;150.798;2024-03-02T05:18:03;7.07;;;1.45;;
63394;SDS011;49531;-34.520;150.798;2024-03-02T05:20:31;7.75;;;1.77;;
63394;SDS011;49531;-34.520;150.798;2024-03-02T05:22:58;7.45;;;1.75;;
63394;SDS011;49531;-34.520;150.798;2024-03-02T05:25:25;6.70;;;1.80;;
63394;SDS011;49531;-34.520;150.798;2024-03-02T05:27:52;8.18;;;1.90;;
63394;SDS011;49531;-34.520;150.798;2024-03-02T05:30:20;4.88;;;1.50;;
63394;SDS011;49531;-34.520;150.798;2024-03-02T05:32:47;6.68;;;1.90;;
63394;SDS011;49531;-34.520;150.798;2024-03-02T05:35:14;2.90;;;1.30;;
63394;SDS011;49531;-34.520;150.798;2024-03-02T05:37:41;4.13;;;1.67;;
63394;SDS011;49531;-34.520;150.798;2024-03-02T05:40:08;5.80;;;1.70;;
63394;SDS011;49531;-34.520;150.798;2024-03-02T05:42:36;3.65;;;1.50;;
63394;SDS011;49531;-34.520;150.798;2024-03-02T05:45:04;6.57;;;1.50;;
63394;SDS011;49531;-34.520;150.798;2024-03-02T05:47:31;5.60;;;1.60;;
63394;SDS011;49531;-34.520;150.798;2024-03-02T05:49:58;5.63;;;1.35;;
63394;SDS011;49531;-34.520;150.798;2024-03-02T05:52:25;5.88;;;1.48;;
63394;SDS011;49531;-34.520;150.798;2024-03-02T05:54:53;3.75;;;1.30;;
63394;SDS011;49531;-34.520;150.798;2024-03-02T05:57:20;4.53;;;1.48;;
63394;SDS011;49531;-34.520;150.798;2024-03-02T06:00:06;3.88;;;1.20;;
63394;SDS011;49531;-34.520;150.798;2024-03-02T06:02:33;5.20;;;1.70;;
63394;SDS011;49531;-34.520;150.798;2024-03-02T06:05:03;3.92;;;1.33;;
63394;SDS011;49531;-34.520;150.798;2024-03-02T06:07:30;4.53;;;1.70;;
63394;SDS011;49531;-34.520;150.798;2024-03-02T06:09:58;5.45;;;1.48;;
63394;SDS011;49531;-34.520;150.798;2024-03-02T06:12:25;4.78;;;1.40;;
63394;SDS011;49531;-34.520;150.798;2024-03-02T06:14:52;5.45;;;1.70;;
63394;SDS011;49531;-34.520;150.798;2024-03-02T06:17:19;4.13;;;1.60;;
63394;SDS011;49531;-34.520;150.798;2024-03-02T06:19:46;5.85;;;1.63;;
63394;SDS011;49531;-34.520;150.798;2024-03-02T06:22:13;7.47;;;1.60;;
63394;SDS011;49531;-34.520;150.798;2024-03-02T06:24:40;4.63;;;1.63;;
63394;SDS011;49531;-34.520;150.798;2024-03-02T06:27:07;6.07;;;1.50;;
63394;SDS011;49531;-34.520;150.798;2024-03-02T06:29:34;5.47;;;1.60;;
63394;SDS011;49531;-34.520;150.798;2024-03-02T06:32:02;5.00;;;1.52;;
63394;SDS011;49531;-34.520;150.798;2024-03-02T06:34:29;4.75;;;1.58;;
63394;SDS011;49531;-34.520;150.798;2024-03-02T06:36:56;6.97;;;1.77;;
63394;SDS011;49531;-34.520;150.798;2024-03-02T06:39:23;5.25;;;1.45;;
63394;SDS011;49531;-34.520;150.798;2024-03-02T06:41:51;8.32;;;1.65;;
63394;SDS011;49531;-34.520;150.798;2024-03-02T06:44:19;5.65;;;1.50;;
63394;SDS011;49531;-34.520;150.798;2024-03-02T06:46:46;5.13;;;1.48;;
63394;SDS011;49531;-34.520;150.798;2024-03-02T06:49:17;7.95;;;1.42;;
63394;SDS011;49531;-34.520;150.798;2024-03-02T06:51:44;4.97;;;1.38;;
63394;SDS011;49531;-34.520;150.798;2024-03-02T06:54:11;4.85;;;1.45;;
63394;SDS011;49531;-34.520;150.798;2024-03-02T06:56:38;3.83;;;1.42;;
63394;SDS011;49531;-34.520;150.798;2024-03-02T06:59:05;5.22;;;1.50;;
63394;SDS011;49531;-34.520;150.798;2024-03-02T07:01:33;5.35;;;1.38;;
63394;SDS011;49531;-34.520;150.798;2024-03-02T07:04:00;6.10;;;1.67;;
63394;SDS011;49531;-34.520;150.798;2024-03-02T07:06:27;6.35;;;1.55;;
63394;SDS011;49531;-34.520;150.798;2024-03-02T07:08:54;3.50;;;1.55;;
63394;SDS011;49531;-34.520;150.798;2024-03-02T07:11:21;6.57;;;1.70;;
63394;SDS011;49531;-34.520;150.798;2024-03-02T07:13:48;5.10;;;1.67;;
63394;SDS011;49531;-34.520;150.798;2024-03-02T07:16:15;5.18;;;1.40;;
63394;SDS011;49531;-34.520;150.798;2024-03-02T07:18:58;5.68;;;1.45;;
63394;SDS011;49531;-34.520;150.798;2024-03-02T07:21:27;5.80;;;1.70;;
63394;SDS011;49531;-34.520;150.798;2024-03-02T07:23:54;5.15;;;1.50;;
63394;SDS011;49531;-34.520;150.798;2024-03-02T07:26:21;7.03;;;1.52;;
63394;SDS011;49531;-34.520;150.798;2024-03-02T07:28:49;119.53;;;5.88;;
63394;SDS011;49531;-34.520;150.798;2024-03-02T07:31:16;50.05;;;3.70;;
63394;SDS011;49531;-34.520;150.798;2024-03-02T07:33:44;42.42;;;3.28;;
63394;SDS011;49531;-34.520;150.798;2024-03-02T07:36:14;36.97;;;2.78;;
63394;SDS011;49531;-34.520;150.798;2024-03-02T07:38:42;30.77;;;3.35;;
63394;SDS011;49531;-34.520;150.798;2024-03-02T07:41:10;26.85;;;2.85;;
63394;SDS011;49531;-34.520;150.798;2024-03-02T07:43:37;21.42;;;2.40;;
63394;SDS011;49531;-34.520;150.798;2024-03-02T07:46:05;16.15;;;2.42;;
63394;SDS011;49531;-34.520;150.798;2024-03-02T07:48:32;13.32;;;2.08;;
63394;SDS011;49531;-34.520;150.798;2024-03-02T07:50:59;18.20;;;2.20;;
63394;SDS011;49531;-34.520;150.798;2024-03-02T07:53:28;17.00;;;1.98;;
63394;SDS011;49531;-34.520;150.798;2024-03-02T07:55:55;10.60;;;2.10;;
63394;SDS011;49531;-34.520;150.798;2024-03-02T07:58:28;15.90;;;2.17;;
63394;SDS011;49531;-34.520;150.798;2024-03-02T08:00:56;11.43;;;1.90;;
63394;SDS011;49531;-34.520;150.798;2024-03-02T08:03:23;13.25;;;1.95;;
63394;SDS011;49531;-34.520;150.798;2024-03-02T08:05:50;8.43;;;1.52;;
63394;SDS011;49531;-34.520;150.798;2024-03-02T08:08:18;9.63;;;1.85;;
63394;SDS011;49531;-34.520;150.798;2024-03-02T08:10:45;13.13;;;1.92;;
63394;SDS011;49531;-34.520;150.798;2024-03-02T08:13:12;8.07;;;1.70;;
63394;SDS011;49531;-34.520;150.798;2024-03-02T08:15:39;9.20;;;2.00;;
63394;SDS011;49531;-34.520;150.798;2024-03-02T08:18:07;8.40;;;1.98;;
63394;SDS011;49531;-34.520;150.798;2024-03-02T08:20:34;5.75;;;1.60;;
63394;SDS011;49531;-34.520;150.798;2024-03-02T08:23:01;5.13;;;1.60;;
63394;SDS011;49531;-34.520;150.798;2024-03-02T08:25:28;8.27;;;1.58;;
63394;SDS011;49531;-34.520;150.798;2024-03-02T08:27:56;4.38;;;1.80;;
63394;SDS011;49531;-34.520;150.798;2024-03-02T08:30:24;4.63;;;1.58;;
63394;SDS011;49531;-34.520;150.798;2024-03-02T08:32:51;8.80;;;1.65;;
63394;SDS011;49531;-34.520;150.798;2024-03-02T08:35:18;5.90;;;1.40;;
63394;SDS011;49531;-34.520;150.798;2024-03-02T08:37:45;6.13;;;1.73;;
63394;SDS011;49531;-34.520;150.798;2024-03-02T08:40:12;6.13;;;1.50;;
63394;SDS011;49531;-34.520;150.798;2024-03-02T08:42:40;8.65;;;1.70;;
63394;SDS011;49531;-34.520;150.798;2024-03-02T08:45:07;7.03;;;1.70;;
63394;SDS011;49531;-34.520;150.798;2024-03-02T08:47:35;4.80;;;1.70;;
63394;SDS011;49531;-34.520;150.798;2024-03-02T08:50:02;6.72;;;1.70;;
63394;SDS011;49531;-34.520;150.798;2024-03-02T08:52:30;4.43;;;1.30;;
63394;SDS011;49531;-34.520;150.798;2024-03-02T08:54:57;6.47;;;2.00;;
63394;SDS011;49531;-34.520;150.798;2024-03-02T08:57:24;3.92;;;1.50;;
63394;SDS011;49531;-34.520;150.798;2024-03-02T08:59:52;4.40;;;1.50;;
63394;SDS011;49531;-34.520;150.798;2024-03-02T09:02:19;5.68;;;1.60;;
63394;SDS011;49531;-34.520;150.798;2024-03-02T09:04:46;6.13;;;1.65;;
63394;SDS011;49531;-34.520;150.798;2024-03-02T09:07:13;4.15;;;1.42;;
63394;SDS011;49531;-34.520;150.798;2024-03-02T09:09:41;6.97;;;1.60;;
63394;SDS011;49531;-34.520;150.798;2024-03-02T09:12:08;5.75;;;1.63;;
63394;SDS011;49531;-34.520;150.798;2024-03-02T09:14:36;4.30;;;1.40;;
63394;SDS011;49531;-34.520;150.798;2024-03-02T09:17:04;7.13;;;1.50;;
63394;SDS011;49531;-34.520;150.798;2024-03-02T09:19:32;4.85;;;1.40;;
63394;SDS011;49531;-34.520;150.798;2024-03-02T09:21:59;4.85;;;1.50;;
63394;SDS011;49531;-34.520;150.798;2024-03-02T09:24:28;6.72;;;1.42;;
63394;SDS011;49531;-34.520;150.798;2024-03-02T09:26:56;4.75;;;1.52;;
63394;SDS011;49531;-34.520;150.798;2024-03-02T09:29:24;4.78;;;1.60;;
63394;SDS011;49531;-34.520;150.798;2024-03-02T09:31:52;3.97;;;1.40;;
63394;SDS011;49531;-34.520;150.798;2024-03-02T09:34:20;3.63;;;1.50;;
63394;SDS011;49531;-34.520;150.798;2024-03-02T09:36:49;4.38;;;1.33;;
63394;SDS011;49531;-34.520;150.798;2024-03-02T09:39:18;4.10;;;1.40;;
63394;SDS011;49531;-34.520;150.798;2024-03-02T09:41:47;4.28;;;1.58;;
63394;SDS011;49531;-34.520;150.798;2024-03-02T09:44:15;4.00;;;1.40;;
63394;SDS011;49531;-34.520;150.798;2024-03-02T09:46:48;4.22;;;1.25;;
63394;SDS011;49531;-34.520;150.798;2024-03-02T09:49:17;3.55;;;1.48;;
63394;SDS011;49531;-34.520;150.798;2024-03-02T09:51:48;5.78;;;1.83;;
63394;SDS011;49531;-34.520;150.798;2024-03-02T09:54:16;3.83;;;1.33;;
63394;SDS011;49531;-34.520;150.798;2024-03-02T09:56:44;3.78;;;1.40;;
63394;SDS011;49531;-34.520;150.798;2024-03-02T09:59:11;5.78;;;1.52;;
63394;SDS011;49531;-34.520;150.798;2024-03-02T10:04:39;4.65;;;1.60;;
63394;SDS011;49531;-34.520;150.798;2024-03-02T10:07:11;3.13;;;1.50;;
63394;SDS011;49531;-34.520;150.798;2024-03-02T10:09:41;6.65;;;1.58;;
63394;SDS011;49531;-34.520;150.798;2024-03-02T10:12:11;3.42;;;1.55;;
63394;SDS011;49531;-34.520;150.798;2024-03-02T10:14:41;3.35;;;1.33;;
63394;SDS011;49531;-34.520;150.798;2024-03-02T10:17:10;3.65;;;1.45;;
63394;SDS011;49531;-34.520;150.798;2024-03-02T10:19:42;2.28;;;1.30;;
63394;SDS011;49531;-34.520;150.798;2024-03-02T10:22:09;4.75;;;1.67;;
63394;SDS011;49531;-34.520;150.798;2024-03-02T10:24:44;3.90;;;1.40;;
63394;SDS011;49531;-34.520;150.798;2024-03-02T10:29:47;3.37;;;1.50;;
63394;SDS011;49531;-34.520;150.798;2024-03-02T10:32:15;3.25;;;1.50;;
63394;SDS011;49531;-34.520;150.798;2024-03-02T10:34:46;4.10;;;1.50;;
63394;SDS011;49531;-34.520;150.798;2024-03-02T10:37:15;3.85;;;1.63;;
63394;SDS011;49531;-34.520;150.798;2024-03-02T10:39:43;3.65;;;1.58;;
63394;SDS011;49531;-34.520;150.798;2024-03-02T10:42:13;4.38;;;1.50;;
63394;SDS011;49531;-34.520;150.798;2024-03-02T10:44:42;6.18;;;1.40;;
63394;SDS011;49531;-34.520;150.798;2024-03-02T10:47:12;4.05;;;1.60;;
63394;SDS011;49531;-34.520;150.798;2024-03-02T10:49:41;3.97;;;1.52;;
63394;SDS011;49531;-34.520;150.798;2024-03-02T10:52:09;4.28;;;1.60;;
63394;SDS011;49531;-34.520;150.798;2024-03-02T10:54:37;3.95;;;1.50;;
63394;SDS011;49531;-34.520;150.798;2024-03-02T10:57:05;4.70;;;1.67;;
63394;SDS011;49531;-34.520;150.798;2024-03-02T10:59:37;3.42;;;1.35;;
63394;SDS011;49531;-34.520;150.798;2024-03-02T11:02:10;3.22;;;1.30;;
63394;SDS011;49531;-34.520;150.798;2024-03-02T11:04:40;3.00;;;1.48;;
63394;SDS011;49531;-34.520;150.798;2024-03-02T11:07:09;2.88;;;1.50;;
63394;SDS011;49531;-34.520;150.798;2024-03-02T11:09:39;2.83;;;1.30;;
63394;SDS011;49531;-34.520;150.798;2024-03-02T11:15:03;3.70;;;1.60;;
63394;SDS011;49531;-34.520;150.798;2024-03-02T11:17:36;3.78;;;1.52;;
63394;SDS011;49531;-34.520;150.798;2024-03-02T11:20:06;3.88;;;1.45;;
63394;SDS011;49531;-34.520;150.798;2024-03-02T11:22:36;3.22;;;1.50;;
63394;SDS011;49531;-34.520;150.798;2024-03-02T11:25:05;5.10;;;1.55;;
63394;SDS011;49531;-34.520;150.798;2024-03-02T11:33:02;4.43;;;1.52;;
63394;SDS011;49531;-34.520;150.798;2024-03-02T11:35:42;3.63;;;1.42;;
63394;SDS011;49531;-34.520;150.798;2024-03-02T11:38:14;5.15;;;1.50;;
63394;SDS011;49531;-34.520;150.798;2024-03-02T11:40:42;4.43;;;1.35;;
63394;SDS011;49531;-34.520;150.798;2024-03-02T11:43:09;4.30;;;1.60;;
63394;SDS011;49531;-34.520;150.798;2024-03-02T11:45:37;5.28;;;1.40;;
63394;SDS011;49531;-34.520;150.798;2024-03-02T11:48:10;4.10;;;1.60;;
63394;SDS011;49531;-34.520;150.798;2024-03-02T11:53:13;3.35;;;1.50;;
63394;SDS011;49531;-34.520;150.798;2024-03-02T11:55:41;3.75;;;1.60;;
63394;SDS011;49531;-34.520;150.798;2024-03-02T11:58:12;3.85;;;1.42;;
63394;SDS011;49531;-34.520;150.798;2024-03-02T12:00:55;4.10;;;1.42;;
63394;SDS011;49531;-34.520;150.798;2024-03-02T12:03:24;4.70;;;1.52;;
63394;SDS011;49531;-34.520;150.798;2024-03-02T12:05:53;5.35;;;1.65;;
63394;SDS011;49531;-34.520;150.798;2024-03-02T12:08:21;3.00;;;1.40;;
63394;SDS011;49531;-34.520;150.798;2024-03-02T12:10:58;4.07;;;1.60;;
63394;SDS011;49531;-34.520;150.798;2024-03-02T12:13:27;3.63;;;1.77;;
63394;SDS011;49531;-34.520;150.798;2024-03-02T12:15:54;3.97;;;1.42;;
63394;SDS011;49531;-34.520;150.798;2024-03-02T12:18:22;2.45;;;1.27;;
63394;SDS011;49531;-34.520;150.798;2024-03-02T12:20:49;3.80;;;1.52;;
63394;SDS011;49531;-34.520;150.798;2024-03-02T12:23:18;4.07;;;1.70;;
63394;SDS011;49531;-34.520;150.798;2024-03-02T12:25:47;3.58;;;1.45;;
63394;SDS011;49531;-34.520;150.798;2024-03-02T12:28:14;3.13;;;1.50;;
63394;SDS011;49531;-34.520;150.798;2024-03-02T12:30:43;5.40;;;1.77;;
63394;SDS011;49531;-34.520;150.798;2024-03-02T12:33:11;3.13;;;1.50;;
63394;SDS011;49531;-34.520;150.798;2024-03-02T12:35:40;3.67;;;1.60;;
63394;SDS011;49531;-34.520;150.798;2024-03-02T12:38:08;3.40;;;1.52;;
63394;SDS011;49531;-34.520;150.798;2024-03-02T12:40:37;3.78;;;1.50;;
63394;SDS011;49531;-34.520;150.798;2024-03-02T12:43:05;3.03;;;1.50;;
63394;SDS011;49531;-34.520;150.798;2024-03-02T12:45:33;3.08;;;1.60;;
63394;SDS011;49531;-34.520;150.798;2024-03-02T12:48:01;3.83;;;1.40;;
63394;SDS011;49531;-34.520;150.798;2024-03-02T12:50:33;3.05;;;1.30;;
63394;SDS011;49531;-34.520;150.798;2024-03-02T12:53:00;5.10;;;1.40;;
63394;SDS011;49531;-34.520;150.798;2024-03-02T12:55:28;4.32;;;1.45;;
63394;SDS011;49531;-34.520;150.798;2024-03-02T12:57:56;2.90;;;1.40;;
63394;SDS011;49531;-34.520;150.798;2024-03-02T13:00:24;3.50;;;1.60;;
63394;SDS011;49531;-34.520;150.798;2024-03-02T13:02:51;4.30;;;1.63;;
63394;SDS011;49531;-34.520;150.798;2024-03-02T13:05:19;2.83;;;1.45;;
63394;SDS011;49531;-34.520;150.798;2024-03-02T13:07:48;4.72;;;1.50;;
63394;SDS011;49531;-34.520;150.798;2024-03-02T13:10:16;5.32;;;1.40;;
63394;SDS011;49531;-34.520;150.798;2024-03-02T13:12:44;5.00;;;1.50;;
63394;SDS011;49531;-34.520;150.798;2024-03-02T13:15:11;3.65;;;1.60;;
63394;SDS011;49531;-34.520;150.798;2024-03-02T13:17:38;3.20;;;1.30;;
63394;SDS011;49531;-34.520;150.798;2024-03-02T13:20:06;3.60;;;1.60;;
63394;SDS011;49531;-34.520;150.798;2024-03-02T13:22:36;5.15;;;1.50;;
63394;SDS011;49531;-34.520;150.798;2024-03-02T13:25:04;3.47;;;1.30;;
63394;SDS011;49531;-34.520;150.798;2024-03-02T13:27:31;2.67;;;1.17;;
63394;SDS011;49531;-34.520;150.798;2024-03-02T13:29:59;4.45;;;1.65;;
63394;SDS011;49531;-34.520;150.798;2024-03-02T13:32:26;4.85;;;1.67;;
63394;SDS011;49531;-34.520;150.798;2024-03-02T13:34:53;4.68;;;1.33;;
63394;SDS011;49531;-34.520;150.798;2024-03-02T13:37:20;5.00;;;1.48;;
63394;SDS011;49531;-34.520;150.798;2024-03-02T13:39:48;4.18;;;1.40;;
63394;SDS011;49531;-34.520;150.798;2024-03-02T13:42:15;3.10;;;1.30;;
63394;SDS011;49531;-34.520;150.798;2024-03-02T13:44:45;4.10;;;1.63;;
63394;SDS011;49531;-34.520;150.798;2024-03-02T13:47:15;3.97;;;1.30;;
63394;SDS011;49531;-34.520;150.798;2024-03-02T13:49:42;3.25;;;1.50;;
63394;SDS011;49531;-34.520;150.798;2024-03-02T13:52:14;4.18;;;1.70;;
63394;SDS011;49531;-34.520;150.798;2024-03-02T13:54:46;4.20;;;1.63;;
63394;SDS011;49531;-34.520;150.798;2024-03-02T13:57:14;4.05;;;1.35;;
63394;SDS011;49531;-34.520;150.798;2024-03-02T13:59:42;3.25;;;1.45;;
63394;SDS011;49531;-34.520;150.798;2024-03-02T14:02:09;3.90;;;1.50;;
63394;SDS011;49531;-34.520;150.798;2024-03-02T14:04:37;3.08;;;1.30;;
63394;SDS011;49531;-34.520;150.798;2024-03-02T14:07:05;3.08;;;1.40;;
63394;SDS011;49531;-34.520;150.798;2024-03-02T14:09:37;3.90;;;1.58;;
63394;SDS011;49531;-34.520;150.798;2024-03-02T14:12:04;3.28;;;1.35;;
63394;SDS011;49531;-34.520;150.798;2024-03-02T14:14:32;5.35;;;1.55;;
63394;SDS011;49531;-34.520;150.798;2024-03-02T14:16:59;3.20;;;1.20;;
63394;SDS011;49531;-34.520;150.798;2024-03-02T14:19:31;3.47;;;1.45;;
63394;SDS011;49531;-34.520;150.798;2024-03-02T14:21:58;5.18;;;1.40;;
63394;SDS011;49531;-34.520;150.798;2024-03-02T14:24:25;2.42;;;1.35;;
63394;SDS011;49531;-34.520;150.798;2024-03-02T14:26:54;3.83;;;1.40;;
63394;SDS011;49531;-34.520;150.798;2024-03-02T14:29:27;3.13;;;1.47;;
63394;SDS011;49531;-34.520;150.798;2024-03-02T14:31:54;3.83;;;1.42;;
63394;SDS011;49531;-34.520;150.798;2024-03-02T14:34:21;5.10;;;1.50;;